Time;durP1;ratioP1;P1;durP2;ratioP2;P2;SDS_P1;SDS_P2;PMS_P1;PMS_P2;Temp;Humidity;BMP_temperature;BMP_pressure;BME280_temperature;BME280_humidity;BME280_pressure;Samples;Min_cycle;Max_cycle;Signal;HPM_P1;HPM_P2
2022/08/12 00:43:27;;;;;;;305.58;187.75;;;;;;;;;;4989834;28;20339;-47
2022/08/12 00:48:38;;;;;;;299.98;180.43;;;;;;;;;;5000458;28;20736;-46
2022/08/12 00:51:05;;;;;;;268.92;167.05;;;;;;;;;;5002722;28;20691;-47
2022/08/12 00:53:31;;;;;;;308.00;185.15;;;;;;;;;;4999657;28;20295;-47
2022/08/12 00:55:58;;;;;;;299.00;178.13;;;;;;;;;;5006091;28;20242;-46
2022/08/12 00:58:29;;;;;;;307.67;186.88;;;;;;;;;;5006249;28;20637;-47
2022/08/12 01:01:00;;;;;;;302.27;182.68;;;;;;;;;;5005977;28;20248;-47
2022/08/12 01:03:26;;;;;;;298.65;184.55;;;;;;;;;;4997524;28;20614;-46
2022/08/12 01:11:33;;;;;;;330.35;196.75;;;;;;;;;;4982006;28;20275;-50
2022/08/12 01:14:00;;;;;;;359.10;209.48;;;;;;;;;;4983436;28;20220;-49
2022/08/12 01:16:26;;;;;;;359.88;205.80;;;;;;;;;;4974486;28;20213;-49
2022/08/12 01:18:53;;;;;;;327.90;193.10;;;;;;;;;;4984912;28;20227;-49
2022/08/12 01:21:41;;;;;;;373.17;212.27;;;;;;;;;;4989997;28;20210;-49
2022/08/12 01:24:07;;;;;;;301.20;180.48;;;;;;;;;;4977225;28;20369;-49
2022/08/12 01:26:33;;;;;;;345.90;205.02;;;;;;;;;;4979329;28;20700;-49
2022/08/12 01:29:02;;;;;;;328.23;199.75;;;;;;;;;;4987341;28;20705;-49
2022/08/12 01:31:28;;;;;;;354.45;209.30;;;;;;;;;;4978614;28;20476;-49
2022/08/12 01:33:59;;;;;;;328.20;197.25;;;;;;;;;;4983604;28;23222;-49
2022/08/12 01:36:27;;;;;;;336.58;201.20;;;;;;;;;;4982834;28;20622;-49
2022/08/12 01:38:56;;;;;;;326.88;196.25;;;;;;;;;;4982457;28;20243;-53
2022/08/12 01:41:24;;;;;;;300.17;189.98;;;;;;;;;;4988784;28;20224;-49
2022/08/12 01:43:50;;;;;;;308.83;190.35;;;;;;;;;;4981176;28;20749;-49
2022/08/12 01:46:16;;;;;;;319.85;187.95;;;;;;;;;;4980261;28;20221;-47
2022/08/12 01:48:49;;;;;;;288.35;173.57;;;;;;;;;;4998000;28;20543;-47
2022/08/12 01:51:21;;;;;;;287.88;177.02;;;;;;;;;;5010707;28;20571;-47
2022/08/12 01:53:57;;;;;;;282.17;171.60;;;;;;;;;;5009498;28;20207;-47
2022/08/12 01:56:25;;;;;;;264.15;160.60;;;;;;;;;;5010012;28;20220;-47
2022/08/12 02:01:38;;;;;;;264.27;162.35;;;;;;;;;;5011337;28;20243;-48
2022/08/12 02:12:56;;;;;;;294.38;178.95;;;;;;;;;;4990239;28;20557;-47
2022/08/12 02:15:27;;;;;;;279.75;169.73;;;;;;;;;;4989922;28;20147;-47
2022/08/12 02:18:11;;;;;;;273.65;165.45;;;;;;;;;;5001458;28;20176;-47
2022/08/12 02:20:43;;;;;;;265.58;157.27;;;;;;;;;;5010379;28;20228;-46
2022/08/12 02:23:10;;;;;;;269.50;162.13;;;;;;;;;;5009566;28;20232;-46
2022/08/12 02:25:37;;;;;;;256.88;158.90;;;;;;;;;;5009873;28;20224;-47
2022/08/12 02:28:03;;;;;;;264.95;157.48;;;;;;;;;;5008945;28;20272;-47
2022/08/12 02:30:30;;;;;;;277.75;169.20;;;;;;;;;;5001086;28;20557;-47
2022/08/12 02:32:58;;;;;;;269.60;162.25;;;;;;;;;;5002845;28;20208;-47
2022/08/12 02:35:25;;;;;;;271.58;163.38;;;;;;;;;;5009009;28;20291;-47
2022/08/12 02:37:52;;;;;;;254.25;152.80;;;;;;;;;;5009728;28;20243;-47
2022/08/12 02:40:18;;;;;;;278.75;162.32;;;;;;;;;;5008788;28;20244;-47
2022/08/12 02:43:03;;;;;;;280.50;164.13;;;;;;;;;;5008812;28;20224;-47
2022/08/12 02:45:32;;;;;;;259.30;161.35;;;;;;;;;;5011545;28;20542;-47
2022/08/12 02:48:03;;;;;;;272.02;171.23;;;;;;;;;;5009519;28;20180;-47
2022/08/12 02:50:31;;;;;;;258.55;165.50;;;;;;;;;;5009146;28;20799;-47
2022/08/12 02:52:57;;;;;;;274.27;172.65;;;;;;;;;;5008877;28;20599;-47
2022/08/12 02:55:26;;;;;;;279.65;178.65;;;;;;;;;;5008678;28;20251;-47
2022/08/12 02:57:52;;;;;;;312.65;194.23;;;;;;;;;;5006340;28;20318;-49
2022/08/12 03:00:18;;;;;;;334.15;205.38;;;;;;;;;;4989008;28;20279;-48
2022/08/12 03:02:45;;;;;;;338.90;212.27;;;;;;;;;;4982585;28;20306;-47
2022/08/12 03:05:13;;;;;;;349.27;209.98;;;;;;;;;;4982038;28;20216;-47
2022/08/12 03:07:44;;;;;;;308.48;190.85;;;;;;;;;;4980731;28;20220;-48
2022/08/12 03:10:11;;;;;;;334.08;203.05;;;;;;;;;;4981957;28;20214;-48
2022/08/12 03:12:38;;;;;;;340.52;207.68;;;;;;;;;;4985544;28;20323;-48
2022/08/12 03:15:08;;;;;;;270.50;179.57;;;;;;;;;;4981218;28;20247;-47
2022/08/12 03:17:34;;;;;;;329.23;199.50;;;;;;;;;;4978994;28;20323;-48
2022/08/12 03:20:01;;;;;;;386.58;225.50;;;;;;;;;;4981224;28;20366;-47
2022/08/12 03:22:28;;;;;;;318.33;188.23;;;;;;;;;;4973652;28;20515;-48
2022/08/12 03:24:57;;;;;;;293.27;183.90;;;;;;;;;;4985850;28;20220;-47
2022/08/12 03:27:23;;;;;;;302.17;193.10;;;;;;;;;;4979044;28;20189;-47
2022/08/12 03:29:50;;;;;;;362.63;209.43;;;;;;;;;;4980382;28;20595;-47
2022/08/12 03:32:23;;;;;;;337.27;202.82;;;;;;;;;;4984280;28;20248;-47
2022/08/12 03:34:49;;;;;;;281.42;177.10;;;;;;;;;;4986706;28;20204;-47
2022/08/12 03:37:17;;;;;;;342.92;201.30;;;;;;;;;;4981845;28;20210;-47
2022/08/12 03:39:44;;;;;;;343.10;192.48;;;;;;;;;;4984025;28;20693;-48
2022/08/12 03:42:29;;;;;;;371.70;195.65;;;;;;;;;;4978366;28;20225;-47
2022/08/12 04:01:28;;;;;;;390.33;196.63;;;;;;;;;;4992432;28;20232;-47
2022/08/12 04:03:54;;;;;;;380.23;194.80;;;;;;;;;;4985893;28;20590;-47
2022/08/12 04:06:30;;;;;;;380.50;196.95;;;;;;;;;;4980870;28;20185;-47
2022/08/12 04:08:57;;;;;;;410.23;209.20;;;;;;;;;;4978779;28;20209;-47
2022/08/12 04:14:11;;;;;;;428.85;223.90;;;;;;;;;;4978826;28;20237;-48
2022/08/12 04:16:37;;;;;;;372.08;190.95;;;;;;;;;;4982532;28;20290;-47
2022/08/12 04:19:04;;;;;;;417.23;218.15;;;;;;;;;;4982990;28;20324;-47
2022/08/12 04:21:33;;;;;;;409.88;208.88;;;;;;;;;;4979776;28;21609;-47
2022/08/12 04:24:00;;;;;;;461.13;239.77;;;;;;;;;;4978258;28;20582;-47
2022/08/12 04:26:27;;;;;;;378.27;204.05;;;;;;;;;;4982735;28;20220;-47
2022/08/12 04:28:58;;;;;;;447.08;239.45;;;;;;;;;;4979377;28;20268;-47
2022/08/12 04:31:51;;;;;;;374.80;206.65;;;;;;;;;;4985983;28;20638;-47
2022/08/12 04:34:18;;;;;;;369.17;195.38;;;;;;;;;;4983765;28;20257;-47
2022/08/12 04:36:44;;;;;;;383.70;202.93;;;;;;;;;;4985427;28;20315;-47
2022/08/12 04:39:11;;;;;;;441.52;228.20;;;;;;;;;;4983243;28;20194;-47
2022/08/12 04:41:37;;;;;;;397.95;206.70;;;;;;;;;;4984804;28;20224;-47
2022/08/12 04:44:04;;;;;;;354.45;189.68;;;;;;;;;;4980815;28;20647;-47
2022/08/12 04:46:29;;;;;;;389.80;204.10;;;;;;;;;;4979785;28;20241;-47
2022/08/12 04:48:56;;;;;;;387.42;198.30;;;;;;;;;;4981325;28;20676;-47
2022/08/12 04:51:22;;;;;;;380.70;204.30;;;;;;;;;;4984766;28;20669;-47
2022/08/12 04:53:49;;;;;;;370.83;206.98;;;;;;;;;;4984634;28;20589;-47
2022/08/12 04:56:15;;;;;;;397.92;215.25;;;;;;;;;;5005411;28;20226;-47
2022/08/12 04:58:41;;;;;;;382.23;203.77;;;;;;;;;;5001890;28;20220;-48
2022/08/12 05:01:09;;;;;;;378.52;208.82;;;;;;;;;;5009602;28;20302;-48
2022/08/12 05:03:34;;;;;;;399.20;209.40;;;;;;;;;;5004977;28;20219;-47
2022/08/12 05:06:01;;;;;;;406.35;209.63;;;;;;;;;;4999246;28;20181;-47
2022/08/12 05:08:27;;;;;;;378.77;207.50;;;;;;;;;;4997793;28;20212;-49
2022/08/12 05:10:53;;;;;;;384.80;213.00;;;;;;;;;;5000859;28;20219;-48
2022/08/12 05:13:21;;;;;;;457.08;240.38;;;;;;;;;;5002569;28;20221;-49
2022/08/12 05:15:47;;;;;;;418.58;220.85;;;;;;;;;;4996221;28;20330;-48
2022/08/12 05:18:14;;;;;;;477.17;247.60;;;;;;;;;;4996189;28;20242;-48
2022/08/12 05:20:42;;;;;;;500.33;252.05;;;;;;;;;;4974532;28;20277;-48
2022/08/12 05:23:11;;;;;;;388.25;220.30;;;;;;;;;;4992435;28;20570;-48
2022/08/12 05:25:37;;;;;;;405.75;219.57;;;;;;;;;;4995038;28;20618;-48
2022/08/12 05:28:04;;;;;;;427.65;230.20;;;;;;;;;;5003289;28;20223;-48
2022/08/12 05:30:31;;;;;;;382.60;214.82;;;;;;;;;;4990752;28;20259;-48
2022/08/12 05:32:57;;;;;;;438.13;235.52;;;;;;;;;;5006495;28;20206;-49
2022/08/12 05:35:23;;;;;;;475.88;257.70;;;;;;;;;;4995083;28;21282;-48
2022/08/12 05:38:54;;;;;;;381.05;217.63;;;;;;;;;;5003642;28;20205;-48
2022/08/12 05:40:40;;;;;;;391.30;214.90;;;;;;;;;;5005428;28;20266;-48
2022/08/12 05:43:06;;;;;;;426.40;237.77;;;;;;;;;;5006330;28;20236;-48
2022/08/12 05:45:32;;;;;;;401.75;226.23;;;;;;;;;;5013103;28;20227;-48
2022/08/12 05:47:58;;;;;;;404.52;233.95;;;;;;;;;;5015572;28;20306;-48
2022/08/12 05:50:24;;;;;;;383.30;222.20;;;;;;;;;;5010509;28;20221;-48
2022/08/12 05:52:51;;;;;;;443.45;237.88;;;;;;;;;;5000896;28;20212;-49
2022/08/12 05:55:19;;;;;;;379.45;204.27;;;;;;;;;;5006207;28;20243;-49
2022/08/12 05:57:48;;;;;;;395.27;227.20;;;;;;;;;;5008361;28;20215;-48
2022/08/12 06:00:15;;;;;;;521.67;293.48;;;;;;;;;;4999811;28;20196;-48
2022/08/12 06:02:41;;;;;;;411.00;241.60;;;;;;;;;;5003422;28;20227;-48
2022/08/12 06:05:09;;;;;;;424.90;251.60;;;;;;;;;;5002318;28;20213;-48
2022/08/12 06:07:40;;;;;;;426.55;247.63;;;;;;;;;;5001651;28;20263;-48
2022/08/12 06:10:06;;;;;;;420.77;235.98;;;;;;;;;;4998476;28;20281;-49
2022/08/12 06:12:32;;;;;;;439.95;245.88;;;;;;;;;;4999047;28;20275;-48
2022/08/12 06:14:58;;;;;;;406.30;237.18;;;;;;;;;;4994980;28;20598;-49
2022/08/12 06:17:24;;;;;;;413.08;233.57;;;;;;;;;;5000994;28;20217;-49
2022/08/12 06:19:50;;;;;;;391.45;219.40;;;;;;;;;;4991653;28;20221;-47
2022/08/12 06:22:16;;;;;;;396.48;229.43;;;;;;;;;;4981935;28;20641;-47
2022/08/12 06:24:42;;;;;;;436.17;250.88;;;;;;;;;;4993168;28;20521;-47
2022/08/12 06:27:08;;;;;;;449.25;262.98;;;;;;;;;;4989716;28;20276;-48
2022/08/12 06:29:35;;;;;;;463.30;260.52;;;;;;;;;;5001002;28;20216;-47
2022/08/12 06:32:01;;;;;;;385.77;228.77;;;;;;;;;;5002298;28;20209;-48
2022/08/12 06:34:30;;;;;;;407.33;238.48;;;;;;;;;;5001231;28;20442;-48
2022/08/12 06:36:56;;;;;;;411.90;240.57;;;;;;;;;;4995546;28;20275;-48
2022/08/12 06:39:22;;;;;;;404.40;240.23;;;;;;;;;;5005711;28;20227;-48
2022/08/12 06:44:33;;;;;;;452.63;258.20;;;;;;;;;;5005184;28;20304;-47
2022/08/12 06:46:59;;;;;;;395.20;234.60;;;;;;;;;;5003164;28;20406;-47
2022/08/12 06:49:27;;;;;;;441.92;258.60;;;;;;;;;;5010836;28;20527;-47
2022/08/12 06:51:54;;;;;;;398.98;245.15;;;;;;;;;;5005919;28;20223;-48
2022/08/12 06:54:20;;;;;;;433.95;262.95;;;;;;;;;;5000715;28;20264;-47
2022/08/12 06:56:46;;;;;;;455.80;279.90;;;;;;;;;;5003342;28;20212;-48
2022/08/12 06:59:14;;;;;;;432.95;268.50;;;;;;;;;;4999573;28;20227;-48
2022/08/12 07:01:40;;;;;;;400.90;252.65;;;;;;;;;;5006337;28;20221;-49
2022/08/12 07:04:06;;;;;;;402.25;251.15;;;;;;;;;;5008276;28;20212;-49
2022/08/12 07:06:32;;;;;;;479.08;288.92;;;;;;;;;;5004051;28;20176;-48
2022/08/12 07:08:58;;;;;;;424.58;263.95;;;;;;;;;;5005643;28;20187;-48
2022/08/12 07:11:24;;;;;;;533.42;316.65;;;;;;;;;;5001061;28;20666;-49
2022/08/12 07:13:52;;;;;;;442.70;279.30;;;;;;;;;;4992783;28;20219;-49
2022/08/12 07:16:18;;;;;;;393.25;254.32;;;;;;;;;;5000490;28;20212;-49
2022/08/12 07:18:46;;;;;;;366.13;237.23;;;;;;;;;;5007761;28;20251;-49
2022/08/12 07:21:13;;;;;;;439.17;268.17;;;;;;;;;;4998323;28;20318;-48
2022/08/12 07:23:40;;;;;;;448.85;279.02;;;;;;;;;;4999075;28;21470;-49
2022/08/12 07:26:08;;;;;;;430.08;270.67;;;;;;;;;;4992943;28;20209;-49
2022/08/12 07:28:38;;;;;;;438.90;276.83;;;;;;;;;;4998296;28;20216;-49
2022/08/12 07:31:06;;;;;;;416.63;266.48;;;;;;;;;;4996938;28;20254;-49
2022/08/12 07:33:32;;;;;;;482.30;286.95;;;;;;;;;;4995283;28;20430;-49
2022/08/12 07:36:01;;;;;;;455.05;281.88;;;;;;;;;;4996417;28;20264;-49
2022/08/12 07:38:37;;;;;;;412.40;257.98;;;;;;;;;;5001432;28;20214;-49
2022/08/12 07:41:04;;;;;;;438.70;269.42;;;;;;;;;;4998324;28;20221;-49
2022/08/12 07:43:31;;;;;;;390.02;247.00;;;;;;;;;;5004182;28;20212;-49
2022/08/12 07:45:57;;;;;;;398.40;255.55;;;;;;;;;;5000865;28;20216;-49
2022/08/12 07:48:24;;;;;;;372.38;246.07;;;;;;;;;;5010114;28;20185;-49
2022/08/12 07:50:50;;;;;;;394.48;246.80;;;;;;;;;;5012889;28;20208;-49
2022/08/12 07:53:16;;;;;;;407.02;253.75;;;;;;;;;;5007960;28;20217;-49
2022/08/12 07:55:42;;;;;;;430.85;267.98;;;;;;;;;;5002444;28;20239;-49
2022/08/12 07:58:08;;;;;;;384.40;243.15;;;;;;;;;;5007549;28;20217;-49
2022/08/12 08:00:36;;;;;;;390.00;255.43;;;;;;;;;;5011661;28;20189;-49
2022/08/12 08:03:03;;;;;;;401.10;253.40;;;;;;;;;;5009935;28;20204;-49
2022/08/12 08:05:38;;;;;;;388.42;248.68;;;;;;;;;;5013355;28;20299;-49
2022/08/12 08:08:17;;;;;;;397.20;257.10;;;;;;;;;;5005501;28;20687;-49
2022/08/12 08:10:45;;;;;;;372.88;249.07;;;;;;;;;;5009936;28;20216;-49
2022/08/12 08:13:11;;;;;;;393.17;259.58;;;;;;;;;;5003866;28;20224;-49
2022/08/12 08:15:38;;;;;;;407.67;271.55;;;;;;;;;;5007056;28;20224;-49
2022/08/12 08:18:05;;;;;;;415.95;268.13;;;;;;;;;;5006961;28;20280;-49
2022/08/12 08:20:32;;;;;;;382.13;257.63;;;;;;;;;;5006084;28;20213;-49
2022/08/12 08:22:59;;;;;;;422.08;278.63;;;;;;;;;;5008970;28;21786;-49
2022/08/12 08:25:29;;;;;;;385.85;266.40;;;;;;;;;;5008423;28;20717;-49
2022/08/12 08:27:56;;;;;;;387.17;269.63;;;;;;;;;;5001849;28;20651;-53
2022/08/12 08:30:22;;;;;;;379.52;262.40;;;;;;;;;;5006774;28;20208;-49
2022/08/12 08:32:48;;;;;;;400.10;272.65;;;;;;;;;;5010084;28;20228;-49
2022/08/12 08:35:14;;;;;;;433.02;284.15;;;;;;;;;;5008535;28;20209;-49
2022/08/12 08:37:45;;;;;;;429.25;270.60;;;;;;;;;;4999339;28;20215;-49
2022/08/12 08:42:55;;;;;;;667.97;383.13;;;;;;;;;;4982355;28;20235;-49
2022/08/12 08:45:21;;;;;;;416.40;270.17;;;;;;;;;;4994112;28;20181;-49
2022/08/12 08:47:48;;;;;;;509.05;301.15;;;;;;;;;;4996686;28;20296;-49
2022/08/12 08:50:15;;;;;;;381.25;265.80;;;;;;;;;;4998129;28;20300;-49
2022/08/12 08:52:47;;;;;;;463.55;310.63;;;;;;;;;;4988849;28;20220;-49
2022/08/12 08:55:14;;;;;;;397.55;280.38;;;;;;;;;;5007494;28;20259;-49
2022/08/12 08:57:42;;;;;;;436.88;306.13;;;;;;;;;;4999947;28;20705;-49
2022/08/12 09:00:11;;;;;;;366.83;262.55;;;;;;;;;;5000811;28;20694;-49
2022/08/12 09:02:37;;;;;;;456.58;332.95;;;;;;;;;;4994728;28;20613;-49
2022/08/12 09:05:03;;;;;;;441.70;314.27;;;;;;;;;;4995735;28;20274;-49
2022/08/12 09:07:28;;;;;;;428.45;306.70;;;;;;;;;;5001712;28;20299;-49
2022/08/12 09:09:56;;;;;;;402.38;297.52;;;;;;;;;;5010799;28;20304;-49
2022/08/12 09:15:07;;;;;;;395.60;293.88;;;;;;;;;;5015280;28;20259;-49
2022/08/12 09:17:33;;;;;;;409.00;304.80;;;;;;;;;;5017049;28;20576;-49
2022/08/12 09:19:59;;;;;;;399.73;288.60;;;;;;;;;;5007510;28;20217;-49
2022/08/12 09:22:25;;;;;;;428.10;320.88;;;;;;;;;;5010737;28;20231;-49
2022/08/12 09:24:51;;;;;;;415.23;312.85;;;;;;;;;;5011455;28;20208;-49
2022/08/12 09:27:17;;;;;;;383.85;280.48;;;;;;;;;;5010797;28;20276;-49
2022/08/12 09:29:44;;;;;;;406.10;296.33;;;;;;;;;;5012314;28;20283;-49
2022/08/12 09:32:10;;;;;;;399.65;303.15;;;;;;;;;;5012669;28;20220;-49
2022/08/12 09:34:36;;;;;;;415.17;304.73;;;;;;;;;;5011369;28;20278;-49
2022/08/12 09:37:03;;;;;;;399.65;297.42;;;;;;;;;;5011129;28;20209;-49
2022/08/12 09:39:29;;;;;;;413.63;322.83;;;;;;;;;;5007910;28;20176;-49
2022/08/12 09:47:27;;;;;;;409.30;309.27;;;;;;;;;;5008561;28;20833;-49
2022/08/12 09:49:53;;;;;;;386.95;297.02;;;;;;;;;;5009871;28;20524;-49
2022/08/12 09:52:19;;;;;;;381.33;288.27;;;;;;;;;;5011096;28;20290;-50
2022/08/12 09:54:45;;;;;;;398.65;311.02;;;;;;;;;;5012176;28;20655;-49
2022/08/12 09:57:21;;;;;;;393.48;286.67;;;;;;;;;;5008438;28;20272;-49
2022/08/12 09:59:47;;;;;;;413.48;315.08;;;;;;;;;;5006881;28;20252;-49
2022/08/12 10:02:13;;;;;;;404.17;302.17;;;;;;;;;;5003277;28;20232;-49
2022/08/12 10:04:42;;;;;;;409.95;300.92;;;;;;;;;;4989131;28;20216;-50
2022/08/12 10:07:08;;;;;;;387.38;286.75;;;;;;;;;;4990344;28;20210;-49
2022/08/12 10:09:34;;;;;;;422.60;304.60;;;;;;;;;;4987851;28;20182;-49
2022/08/12 10:14:44;;;;;;;415.30;305.67;;;;;;;;;;4987194;28;20460;-49
2022/08/12 10:17:10;;;;;;;396.58;292.73;;;;;;;;;;4987800;28;20419;-49
2022/08/12 10:19:38;;;;;;;397.35;294.95;;;;;;;;;;4995267;28;20320;-49
2022/08/12 10:22:04;;;;;;;372.55;277.90;;;;;;;;;;4993794;28;20276;-49
2022/08/12 10:24:30;;;;;;;438.50;322.92;;;;;;;;;;4989211;28;20626;-49
2022/08/12 10:29:43;;;;;;;399.10;295.70;;;;;;;;;;4989646;28;20308;-49
2022/08/12 10:32:11;;;;;;;397.92;300.95;;;;;;;;;;5000318;28;20741;-50
2022/08/12 10:34:39;;;;;;;401.83;302.58;;;;;;;;;;4985835;28;20217;-50
2022/08/12 10:37:05;;;;;;;412.35;326.45;;;;;;;;;;4996116;28;20217;-49
2022/08/12 10:39:34;;;;;;;390.83;313.10;;;;;;;;;;4988810;28;20393;-49
2022/08/12 10:44:48;;;;;;;386.40;296.13;;;;;;;;;;4990442;28;20614;-49
2022/08/12 10:47:20;;;;;;;406.80;322.80;;;;;;;;;;4990036;28;20295;-49
2022/08/12 10:49:47;;;;;;;395.08;319.35;;;;;;;;;;4987760;28;20621;-49
2022/08/12 10:52:13;;;;;;;402.85;319.73;;;;;;;;;;4988801;28;20221;-50
2022/08/12 10:54:40;;;;;;;460.52;349.67;;;;;;;;;;4979390;28;20255;-49
2022/08/12 10:57:06;;;;;;;412.83;319.98;;;;;;;;;;4975561;28;20758;-49
2022/08/12 10:59:32;;;;;;;439.02;331.63;;;;;;;;;;4975411;28;20324;-49
2022/08/12 11:01:59;;;;;;;471.48;423.15;;;;;;;;;;4977951;28;20292;-50
2022/08/12 11:04:25;;;;;;;427.20;361.90;;;;;;;;;;4972978;28;20689;-50
2022/08/12 11:06:52;;;;;;;420.02;335.05;;;;;;;;;;4982746;28;20302;-49
2022/08/12 11:09:20;;;;;;;421.67;338.52;;;;;;;;;;4981797;28;20284;-50
2022/08/12 11:11:47;;;;;;;433.80;337.52;;;;;;;;;;4981474;28;20713;-49
2022/08/12 11:14:18;;;;;;;431.50;339.55;;;;;;;;;;4984038;28;20709;-49
2022/08/12 11:16:44;;;;;;;398.63;324.02;;;;;;;;;;4983664;28;20229;-50
2022/08/12 11:19:11;;;;;;;413.38;339.77;;;;;;;;;;4981881;28;20252;-50
2022/08/12 11:21:37;;;;;;;483.48;366.27;;;;;;;;;;4985120;28;20262;-49
2022/08/12 11:24:03;;;;;;;395.38;318.88;;;;;;;;;;4986258;28;20281;-49
2022/08/12 11:26:29;;;;;;;436.45;341.83;;;;;;;;;;4989197;28;20275;-49
2022/08/12 11:28:55;;;;;;;424.52;339.25;;;;;;;;;;4985462;28;20220;-49
2022/08/12 11:31:21;;;;;;;392.00;319.40;;;;;;;;;;4983505;28;20411;-50
2022/08/12 11:33:48;;;;;;;397.73;341.45;;;;;;;;;;4981986;28;20236;-49
2022/08/12 11:36:14;;;;;;;408.00;330.55;;;;;;;;;;4980768;28;20553;-50
2022/08/12 11:38:40;;;;;;;447.52;363.35;;;;;;;;;;4986560;28;20221;-50
2022/08/12 11:41:06;;;;;;;393.95;335.45;;;;;;;;;;4990975;28;20223;-50
2022/08/12 11:43:32;;;;;;;444.50;373.27;;;;;;;;;;4983767;28;20777;-49
2022/08/12 11:45:59;;;;;;;404.05;344.45;;;;;;;;;;4985855;28;20671;-49
2022/08/12 11:48:25;;;;;;;402.45;339.52;;;;;;;;;;4978580;28;20182;-49
2022/08/12 11:50:51;;;;;;;428.08;343.48;;;;;;;;;;4983156;28;20268;-50
2022/08/12 11:53:17;;;;;;;450.40;367.10;;;;;;;;;;4976295;28;21734;-50
2022/08/12 11:55:43;;;;;;;456.15;354.17;;;;;;;;;;4978239;28;20304;-50
2022/08/12 11:58:09;;;;;;;419.30;340.83;;;;;;;;;;4988152;28;20228;-49
2022/08/12 12:00:35;;;;;;;418.88;330.65;;;;;;;;;;4983735;28;20538;-50
2022/08/12 12:03:01;;;;;;;434.50;349.67;;;;;;;;;;4983553;28;20231;-50
2022/08/12 12:05:27;;;;;;;415.13;338.52;;;;;;;;;;4988418;28;20225;-50
2022/08/12 12:07:53;;;;;;;427.88;341.67;;;;;;;;;;4977883;28;20217;-50
2022/08/12 12:10:20;;;;;;;411.95;347.35;;;;;;;;;;4988894;28;20205;-50
2022/08/12 12:12:46;;;;;;;443.83;362.30;;;;;;;;;;4981011;28;20928;-49
2022/08/12 12:15:13;;;;;;;450.10;370.33;;;;;;;;;;4976755;28;20189;-50
2022/08/12 12:17:39;;;;;;;473.23;376.60;;;;;;;;;;4982188;28;20269;-50
2022/08/12 12:20:09;;;;;;;427.30;364.15;;;;;;;;;;4978559;28;20213;-50
2022/08/12 12:22:36;;;;;;;461.40;375.73;;;;;;;;;;4985652;28;20245;-50
2022/08/12 12:25:03;;;;;;;436.70;366.27;;;;;;;;;;4982521;28;20225;-50
2022/08/12 12:27:29;;;;;;;450.10;370.90;;;;;;;;;;4978560;28;20214;-50
2022/08/12 12:29:56;;;;;;;425.17;354.98;;;;;;;;;;4988747;28;20237;-50
2022/08/12 12:32:22;;;;;;;415.75;350.02;;;;;;;;;;4977627;28;20221;-50
2022/08/12 12:34:48;;;;;;;451.23;369.17;;;;;;;;;;4984838;28;20521;-50
2022/08/12 12:37:14;;;;;;;423.92;364.23;;;;;;;;;;4986026;28;20232;-50
2022/08/12 12:39:42;;;;;;;464.05;391.55;;;;;;;;;;4991808;28;20296;-50
2022/08/12 12:42:08;;;;;;;402.45;357.63;;;;;;;;;;4992956;28;20239;-50
2022/08/12 12:44:34;;;;;;;432.48;368.83;;;;;;;;;;4983733;28;20751;-50
2022/08/12 12:47:00;;;;;;;401.33;354.73;;;;;;;;;;4980913;28;20258;-50
2022/08/12 12:49:26;;;;;;;479.88;396.23;;;;;;;;;;4978726;28;20217;-50
2022/08/12 12:51:52;;;;;;;427.85;361.20;;;;;;;;;;4982342;28;20227;-50
2022/08/12 12:54:19;;;;;;;442.90;375.05;;;;;;;;;;4983379;28;20211;-50
2022/08/12 12:56:48;;;;;;;477.75;397.83;;;;;;;;;;4978095;28;20206;-50
2022/08/12 12:59:17;;;;;;;412.08;357.40;;;;;;;;;;4982074;28;20663;-50
2022/08/12 13:01:43;;;;;;;450.90;373.75;;;;;;;;;;4977376;28;20344;-50
2022/08/12 13:04:10;;;;;;;417.48;360.83;;;;;;;;;;4980000;28;20316;-50
2022/08/12 13:06:37;;;;;;;459.13;390.52;;;;;;;;;;4978648;28;20289;-50
2022/08/12 13:09:03;;;;;;;431.30;381.02;;;;;;;;;;4979485;28;20549;-50
2022/08/12 13:11:30;;;;;;;428.75;362.08;;;;;;;;;;4973517;28;20283;-50
2022/08/12 13:13:56;;;;;;;432.73;369.40;;;;;;;;;;4977653;28;20241;-50
2022/08/12 13:16:25;;;;;;;466.88;389.17;;;;;;;;;;4974585;28;20372;-50
2022/08/12 13:18:52;;;;;;;452.10;375.50;;;;;;;;;;4969613;28;20746;-50
2022/08/12 13:21:18;;;;;;;440.42;372.15;;;;;;;;;;4984391;28;20557;-50
2022/08/12 13:23:45;;;;;;;407.63;360.52;;;;;;;;;;4983108;28;20213;-50
2022/08/12 13:26:16;;;;;;;429.33;379.50;;;;;;;;;;4984556;28;20513;-50
2022/08/12 13:28:44;;;;;;;451.05;383.85;;;;;;;;;;4976169;28;20212;-50
2022/08/12 13:31:10;;;;;;;419.50;364.92;;;;;;;;;;4986382;28;20559;-50
2022/08/12 13:33:36;;;;;;;477.90;390.02;;;;;;;;;;4981348;28;20289;-50
2022/08/12 13:36:03;;;;;;;479.95;392.25;;;;;;;;;;4981287;28;20327;-50
2022/08/12 13:38:35;;;;;;;443.95;378.83;;;;;;;;;;4985985;28;20400;-50
2022/08/12 13:41:01;;;;;;;448.65;384.75;;;;;;;;;;4981703;28;20638;-50
2022/08/12 13:43:27;;;;;;;411.27;366.90;;;;;;;;;;4987707;28;20491;-50
2022/08/12 13:45:53;;;;;;;428.00;371.67;;;;;;;;;;4978027;28;20221;-50
2022/08/12 13:48:19;;;;;;;458.45;387.85;;;;;;;;;;4982968;28;20181;-50
2022/08/12 13:50:45;;;;;;;408.85;358.63;;;;;;;;;;4980388;28;20251;-50
2022/08/12 13:53:12;;;;;;;423.33;365.48;;;;;;;;;;4985544;28;20225;-50
2022/08/12 13:55:39;;;;;;;463.73;380.00;;;;;;;;;;4985004;28;20287;-50
2022/08/12 13:58:05;;;;;;;418.25;358.92;;;;;;;;;;4979575;28;20309;-50
2022/08/12 14:00:32;;;;;;;443.58;369.02;;;;;;;;;;4988381;28;20182;-50
2022/08/12 14:02:59;;;;;;;456.88;374.05;;;;;;;;;;4988556;28;20224;-50
2022/08/12 14:05:26;;;;;;;414.08;353.60;;;;;;;;;;4986865;28;20712;-50
2022/08/12 14:07:55;;;;;;;466.92;383.77;;;;;;;;;;4975000;28;20285;-50
2022/08/12 14:10:37;;;;;;;460.75;392.55;;;;;;;;;;4981352;28;20214;-50
2022/08/12 14:13:16;;;;;;;437.15;372.65;;;;;;;;;;4984900;28;20260;-50
2022/08/12 14:15:46;;;;;;;451.63;374.95;;;;;;;;;;4982585;28;20216;-50
2022/08/12 14:18:13;;;;;;;453.88;376.88;;;;;;;;;;4980306;28;20208;-51
2022/08/12 14:20:40;;;;;;;432.17;368.17;;;;;;;;;;4985882;28;20266;-50
2022/08/12 14:23:06;;;;;;;419.90;359.35;;;;;;;;;;4978015;28;20217;-52
2022/08/12 14:25:32;;;;;;;447.00;376.48;;;;;;;;;;4985558;28;20764;-51
2022/08/12 14:28:10;;;;;;;436.65;381.90;;;;;;;;;;4984032;28;20478;-50
2022/08/12 14:30:36;;;;;;;445.95;395.50;;;;;;;;;;4978217;28;20221;-51
2022/08/12 14:33:04;;;;;;;465.50;414.65;;;;;;;;;;4992441;28;20532;-50
2022/08/12 14:35:30;;;;;;;474.15;423.45;;;;;;;;;;4976016;28;20300;-51
2022/08/12 14:37:56;;;;;;;467.05;420.60;;;;;;;;;;4988735;28;20221;-51
2022/08/12 14:40:22;;;;;;;468.88;422.75;;;;;;;;;;4991866;28;20582;-51
2022/08/12 14:42:48;;;;;;;474.75;430.38;;;;;;;;;;4981743;28;20397;-51
2022/08/12 14:45:14;;;;;;;481.02;434.67;;;;;;;;;;4990494;28;20193;-51
2022/08/12 14:47:48;;;;;;;490.40;442.95;;;;;;;;;;4979792;28;20511;-51
2022/08/12 14:50:16;;;;;;;501.63;453.77;;;;;;;;;;4989654;28;20577;-51
2022/08/12 14:52:43;;;;;;;537.00;483.27;;;;;;;;;;4974790;28;20642;-51
2022/08/12 14:55:09;;;;;;;499.63;452.65;;;;;;;;;;4980250;28;21933;-51
2022/08/12 14:57:49;;;;;;;530.58;480.17;;;;;;;;;;4982030;28;20674;-51
2022/08/12 15:03:02;;;;;;;538.75;486.55;;;;;;;;;;4982874;28;20271;-51
2022/08/12 15:05:33;;;;;;;543.75;492.58;;;;;;;;;;4987295;28;20773;-51
2022/08/12 15:07:59;;;;;;;548.90;499.08;;;;;;;;;;4983770;28;20667;-51
2022/08/12 15:10:25;;;;;;;561.58;509.30;;;;;;;;;;4975207;28;20228;-51
2022/08/12 15:12:51;;;;;;;542.42;493.17;;;;;;;;;;4975341;28;20221;-51
2022/08/12 15:15:18;;;;;;;547.80;497.38;;;;;;;;;;4984279;28;20234;-51
2022/08/12 15:17:44;;;;;;;574.05;519.20;;;;;;;;;;4979043;28;20201;-51
2022/08/12 15:20:10;;;;;;;549.25;499.73;;;;;;;;;;4981593;28;20216;-50
2022/08/12 15:22:39;;;;;;;560.28;509.02;;;;;;;;;;4972961;28;20308;-50
2022/08/12 15:25:09;;;;;;;575.85;525.40;;;;;;;;;;4977573;28;20531;-50
2022/08/12 15:27:42;;;;;;;643.00;579.80;;;;;;;;;;4970823;28;21137;-51
2022/08/12 15:30:08;;;;;;;575.08;522.08;;;;;;;;;;4979679;28;20181;-51
2022/08/12 15:32:36;;;;;;;543.35;494.45;;;;;;;;;;4981375;28;20259;-51
2022/08/12 15:35:02;;;;;;;553.03;502.17;;;;;;;;;;4981110;28;20292;-50
2022/08/12 15:37:28;;;;;;;520.88;475.80;;;;;;;;;;4978314;28;20581;-50
2022/08/12 15:39:54;;;;;;;545.22;494.10;;;;;;;;;;4981582;28;20223;-50